sensor_id;sensor_type;location;lat;lon;timestamp;pressure;altitude;pressure_sealevel;temperature;humidity
65754;BME280;52488;47.502;18.940;2023-01-27T00:00:25;98049.78;;;-0.22;85.86
65754;BME280;52488;47.502;18.940;2023-01-27T00:01:29;98048.22;;;-0.17;85.80
65754;BME280;52488;47.502;18.940;2023-01-27T00:02:32;98052.41;;;-0.16;85.79
65754;BME280;52488;47.502;18.940;2023-01-27T00:03:36;98048.44;;;-0.15;85.84
65754;BME280;52488;47.502;18.940;2023-01-27T00:04:39;98050.44;;;-0.16;85.87
65754;BME280;52488;47.502;18.940;2023-01-27T00:05:42;98048.94;;;-0.17;85.92
65754;BME280;52488;47.502;18.940;2023-01-27T00:06:45;98048.72;;;-0.19;86.23
65754;BME280;52488;47.502;18.940;2023-01-27T00:07:49;98048.00;;;-0.19;86.42
65754;BME280;52488;47.502;18.940;2023-01-27T00:08:52;98049.47;;;-0.18;86.21
65754;BME280;52488;47.502;18.940;2023-01-27T00:09:55;98047.50;;;-0.18;86.11
65754;BME280;52488;47.502;18.940;2023-01-27T00:10:59;98044.72;;;-0.12;85.90
65754;BME280;52488;47.502;18.940;2023-01-27T00:12:25;98045.50;;;-0.17;85.62
65754;BME280;52488;47.502;18.940;2023-01-27T00:13:47;98046.03;;;-0.19;85.76
65754;BME280;52488;47.502;18.940;2023-01-27T00:14:50;98045.09;;;-0.21;85.82
65754;BME280;52488;47.502;18.940;2023-01-27T00:15:54;98038.22;;;-0.22;85.89
65754;BME280;52488;47.502;18.940;2023-01-27T00:16:58;98039.47;;;-0.23;85.95
65754;BME280;52488;47.502;18.940;2023-01-27T00:18:02;98041.94;;;-0.25;86.03
65754;BME280;52488;47.502;18.940;2023-01-27T00:19:05;98042.69;;;-0.25;86.41
65754;BME280;52488;47.502;18.940;2023-01-27T00:20:09;98049.00;;;-0.22;86.23
65754;BME280;52488;47.502;18.940;2023-01-27T00:21:13;98046.09;;;-0.24;86.06
65754;BME280;52488;47.502;18.940;2023-01-27T00:22:35;98044.66;;;-0.25;86.00
65754;BME280;52488;47.502;18.940;2023-01-27T00:23:57;98038.28;;;-0.28;86.01
65754;BME280;52488;47.502;18.940;2023-01-27T00:25:19;98042.47;;;-0.27;86.01
65754;BME280;52488;47.502;18.940;2023-01-27T00:26:22;98042.97;;;-0.29;86.02
65754;BME280;52488;47.502;18.940;2023-01-27T00:27:25;98032.69;;;-0.30;86.12
65754;BME280;52488;47.502;18.940;2023-01-27T00:28:30;98034.13;;;-0.29;86.19
65754;BME280;52488;47.502;18.940;2023-01-27T00:29:37;98041.50;;;-0.30;86.11
65754;BME280;52488;47.502;18.940;2023-01-27T00:30:41;98037.34;;;-0.31;86.12
65754;BME280;52488;47.502;18.940;2023-01-27T00:31:44;98035.88;;;-0.32;86.27
65754;BME280;52488;47.502;18.940;2023-01-27T00:33:07;98035.37;;;-0.30;86.36
65754;BME280;52488;47.502;18.940;2023-01-27T00:34:29;98038.00;;;-0.24;86.39
65754;BME280;52488;47.502;18.940;2023-01-27T00:35:32;98036.03;;;-0.24;86.52
65754;BME280;52488;47.502;18.940;2023-01-27T00:36:37;98039.25;;;-0.25;86.74
65754;BME280;52488;47.502;18.940;2023-01-27T00:37:41;98036.56;;;-0.25;86.75
65754;BME280;52488;47.502;18.940;2023-01-27T00:38:45;98032.59;;;-0.24;86.71
65754;BME280;52488;47.502;18.940;2023-01-27T00:39:48;98035.81;;;-0.26;86.55
65754;BME280;52488;47.502;18.940;2023-01-27T00:40:51;98044.66;;;-0.25;86.56
65754;BME280;52488;47.502;18.940;2023-01-27T00:42:13;98038.53;;;-0.26;86.63
65754;BME280;52488;47.502;18.940;2023-01-27T00:43:16;98041.94;;;-0.25;86.73
65754;BME280;52488;47.502;18.940;2023-01-27T00:44:19;98040.91;;;-0.22;86.62
65754;BME280;52488;47.502;18.940;2023-01-27T00:45:23;98034.28;;;-0.21;86.10
65754;BME280;52488;47.502;18.940;2023-01-27T00:46:45;98037.72;;;-0.21;86.02
65754;BME280;52488;47.502;18.940;2023-01-27T00:47:48;98036.75;;;-0.23;86.15
65754;BME280;52488;47.502;18.940;2023-01-27T00:48:52;98027.94;;;-0.24;86.32
65754;BME280;52488;47.502;18.940;2023-01-27T00:49:55;98034.78;;;-0.23;86.49
65754;BME280;52488;47.502;18.940;2023-01-27T00:50:59;98036.03;;;-0.24;86.49
65754;BME280;52488;47.502;18.940;2023-01-27T00:52:02;98038.22;;;-0.22;86.56
65754;BME280;52488;47.502;18.940;2023-01-27T00:53:05;98039.91;;;-0.19;86.32
65754;BME280;52488;47.502;18.940;2023-01-27T00:54:09;98039.91;;;-0.19;86.07
65754;BME280;52488;47.502;18.940;2023-01-27T00:55:12;98036.94;;;-0.16;85.60
65754;BME280;52488;47.502;18.940;2023-01-27T00:56:17;98035.44;;;-0.17;85.51
65754;BME280;52488;47.502;18.940;2023-01-27T00:57:21;98044.50;;;-0.14;85.68
65754;BME280;52488;47.502;18.940;2023-01-27T00:58:25;98039.63;;;-0.16;85.79
65754;BME280;52488;47.502;18.940;2023-01-27T00:59:29;98034.44;;;-0.14;85.98
65754;BME280;52488;47.502;18.940;2023-01-27T01:00:33;98035.16;;;-0.13;86.01
65754;BME280;52488;47.502;18.940;2023-01-27T01:01:36;98039.09;;;-0.14;86.20
65754;BME280;52488;47.502;18.940;2023-01-27T01:02:40;98033.72;;;-0.14;85.97
65754;BME280;52488;47.502;18.940;2023-01-27T01:03:43;98036.41;;;-0.14;85.43
65754;BME280;52488;47.502;18.940;2023-01-27T01:04:47;98033.19;;;-0.13;85.58
65754;BME280;52488;47.502;18.940;2023-01-27T01:05:51;98031.94;;;-0.12;85.64
65754;BME280;52488;47.502;18.940;2023-01-27T01:06:54;98029.25;;;-0.12;85.83
65754;BME280;52488;47.502;18.940;2023-01-27T01:07:57;98031.22;;;-0.12;86.00
65754;BME280;52488;47.502;18.940;2023-01-27T01:09:01;98027.28;;;-0.11;86.09
65754;BME280;52488;47.502;18.940;2023-01-27T01:10:04;98025.31;;;-0.11;86.21
65754;BME280;52488;47.502;18.940;2023-01-27T01:11:11;98035.37;;;-0.11;86.26
65754;BME280;52488;47.502;18.940;2023-01-27T01:12:15;98032.19;;;-0.10;86.44
65754;BME280;52488;47.502;18.940;2023-01-27T01:13:23;98036.63;;;-0.12;86.77
65754;BME280;52488;47.502;18.940;2023-01-27T01:14:30;98036.13;;;-0.11;86.92
65754;BME280;52488;47.502;18.940;2023-01-27T01:15:35;98032.91;;;-0.09;86.87
65754;BME280;52488;47.502;18.940;2023-01-27T01:16:38;98043.47;;;-0.11;86.66
65754;BME280;52488;47.502;18.940;2023-01-27T01:17:42;98035.16;;;-0.13;86.72
65754;BME280;52488;47.502;18.940;2023-01-27T01:18:45;98032.97;;;-0.15;86.98
65754;BME280;52488;47.502;18.940;2023-01-27T01:19:49;98033.50;;;-0.16;86.92
65754;BME280;52488;47.502;18.940;2023-01-27T01:20:52;98037.66;;;-0.15;87.00
65754;BME280;52488;47.502;18.940;2023-01-27T01:21:55;98028.59;;;-0.18;87.12
65754;BME280;52488;47.502;18.940;2023-01-27T01:22:58;98033.25;;;-0.18;87.33
65754;BME280;52488;47.502;18.940;2023-01-27T01:24:02;98032.53;;;-0.19;87.38
65754;BME280;52488;47.502;18.940;2023-01-27T01:25:05;98034.00;;;-0.18;87.51
65754;BME280;52488;47.502;18.940;2023-01-27T01:26:11;98022.91;;;-0.14;87.27
65754;BME280;52488;47.502;18.940;2023-01-27T01:27:15;98028.38;;;-0.20;87.20
65754;BME280;52488;47.502;18.940;2023-01-27T01:28:19;98032.03;;;-0.17;87.23
65754;BME280;52488;47.502;18.940;2023-01-27T01:29:22;98032.53;;;-0.19;87.15
65754;BME280;52488;47.502;18.940;2023-01-27T01:30:26;98024.16;;;-0.15;87.23
65754;BME280;52488;47.502;18.940;2023-01-27T01:31:30;98025.75;;;-0.07;86.59
65754;BME280;52488;47.502;18.940;2023-01-27T01:32:33;98027.19;;;-0.06;84.86
65754;BME280;52488;47.502;18.940;2023-01-27T01:33:37;98026.25;;;-0.08;83.88
65754;BME280;52488;47.502;18.940;2023-01-27T01:34:40;98030.78;;;0.03;81.95
65754;BME280;52488;47.502;18.940;2023-01-27T01:35:43;98029.69;;;-0.08;82.00
65754;BME280;52488;47.502;18.940;2023-01-27T01:36:47;98030.28;;;-0.15;82.09
65754;BME280;52488;47.502;18.940;2023-01-27T01:37:51;98032.75;;;0.02;80.88
65754;BME280;52488;47.502;18.940;2023-01-27T01:38:55;98024.00;;;-0.04;80.45
65754;BME280;52488;47.502;18.940;2023-01-27T01:39:58;98020.41;;;-0.12;80.41
65754;BME280;52488;47.502;18.940;2023-01-27T01:41:03;98019.16;;;-0.11;80.64
65754;BME280;52488;47.502;18.940;2023-01-27T01:42:06;98015.25;;;-0.10;79.86
65754;BME280;52488;47.502;18.940;2023-01-27T01:43:14;98024.16;;;-0.15;80.12
65754;BME280;52488;47.502;18.940;2023-01-27T01:44:29;98014.81;;;-0.14;80.07
65754;BME280;52488;47.502;18.940;2023-01-27T01:46:38;98021.59;;;-0.27;79.86
65754;BME280;52488;47.502;18.940;2023-01-27T01:47:43;98024.78;;;-0.28;79.52
65754;BME280;52488;47.502;18.940;2023-01-27T01:48:53;98023.06;;;-0.25;79.33
65754;BME280;52488;47.502;18.940;2023-01-27T01:49:57;98025.22;;;-0.24;79.08
65754;BME280;52488;47.502;18.940;2023-01-27T01:52:17;98025.53;;;-0.28;79.21
65754;BME280;52488;47.502;18.940;2023-01-27T01:53:24;98016.34;;;-0.19;78.15
65754;BME280;52488;47.502;18.940;2023-01-27T01:54:35;98018.91;;;-0.27;78.26
65754;BME280;52488;47.502;18.940;2023-01-27T01:55:39;98035.09;;;-0.27;78.41
65754;BME280;52488;47.502;18.940;2023-01-27T01:56:46;98029.69;;;-0.27;78.00
65754;BME280;52488;47.502;18.940;2023-01-27T01:57:52;98018.09;;;-0.21;77.30
65754;BME280;52488;47.502;18.940;2023-01-27T01:58:57;98025.22;;;-0.24;77.37
65754;BME280;52488;47.502;18.940;2023-01-27T02:00:07;98028.44;;;-0.25;77.30
65754;BME280;52488;47.502;18.940;2023-01-27T02:01:13;98022.09;;;-0.28;77.00
65754;BME280;52488;47.502;18.940;2023-01-27T02:02:20;98016.53;;;-0.36;77.73
65754;BME280;52488;47.502;18.940;2023-01-27T02:03:28;98027.63;;;-0.39;77.94
65754;BME280;52488;47.502;18.940;2023-01-27T02:04:39;98027.34;;;-0.36;77.49
65754;BME280;52488;47.502;18.940;2023-01-27T02:05:44;98024.66;;;-0.36;77.22
65754;BME280;52488;47.502;18.940;2023-01-27T02:08:00;98015.62;;;-0.38;77.22
65754;BME280;52488;47.502;18.940;2023-01-27T02:08:41;98017.59;;;-0.39;77.17
65754;BME280;52488;47.502;18.940;2023-01-27T02:09:46;98022.97;;;-0.39;77.23
65754;BME280;52488;47.502;18.940;2023-01-27T02:10:53;98011.75;;;-0.43;77.48
65754;BME280;52488;47.502;18.940;2023-01-27T02:11:57;98012.47;;;-0.42;77.78
65754;BME280;52488;47.502;18.940;2023-01-27T02:13:00;98005.59;;;-0.24;76.78
65754;BME280;52488;47.502;18.940;2023-01-27T02:14:03;98003.63;;;-0.24;76.23
65754;BME280;52488;47.502;18.940;2023-01-27T02:15:09;97999.34;;;-0.33;76.50
65754;BME280;52488;47.502;18.940;2023-01-27T02:16:13;98011.94;;;-0.41;77.00
65754;BME280;52488;47.502;18.940;2023-01-27T02:17:18;98008.31;;;-0.43;77.32
65754;BME280;52488;47.502;18.940;2023-01-27T02:18:21;98005.38;;;-0.45;77.52
65754;BME280;52488;47.502;18.940;2023-01-27T02:19:34;98004.56;;;-0.40;77.68
65754;BME280;52488;47.502;18.940;2023-01-27T02:20:45;97997.37;;;-0.32;77.27
65754;BME280;52488;47.502;18.940;2023-01-27T02:21:53;97991.25;;;-0.33;77.04
65754;BME280;52488;47.502;18.940;2023-01-27T02:23:25;97998.44;;;-0.41;77.45
65754;BME280;52488;47.502;18.940;2023-01-27T02:24:37;97995.03;;;-0.41;77.71
65754;BME280;52488;47.502;18.940;2023-01-27T02:27:06;97991.22;;;-0.51;78.87
65754;BME280;52488;47.502;18.940;2023-01-27T02:28:10;97995.16;;;-0.52;79.50
65754;BME280;52488;47.502;18.940;2023-01-27T02:29:14;97985.62;;;-0.54;79.71
65754;BME280;52488;47.502;18.940;2023-01-27T02:30:17;97986.56;;;-0.51;79.65
65754;BME280;52488;47.502;18.940;2023-01-27T02:31:21;97991.00;;;-0.54;79.73
65754;BME280;52488;47.502;18.940;2023-01-27T02:32:25;97994.44;;;-0.53;79.82
65754;BME280;52488;47.502;18.940;2023-01-27T02:33:28;97986.78;;;-0.49;79.65
65754;BME280;52488;47.502;18.940;2023-01-27T02:34:36;97986.78;;;-0.49;79.66
65754;BME280;52488;47.502;18.940;2023-01-27T02:35:55;97982.41;;;-0.52;79.76
65754;BME280;52488;47.502;18.940;2023-01-27T02:37:08;97986.34;;;-0.53;80.08
65754;BME280;52488;47.502;18.940;2023-01-27T02:38:14;97986.84;;;-0.55;80.50
65754;BME280;52488;47.502;18.940;2023-01-27T02:39:22;97988.84;;;-0.55;80.60
65754;BME280;52488;47.502;18.940;2023-01-27T02:40:29;97982.19;;;-0.54;80.75
65754;BME280;52488;47.502;18.940;2023-01-27T02:41:38;97980.87;;;-0.47;80.38
65754;BME280;52488;47.502;18.940;2023-01-27T02:42:42;97974.53;;;-0.50;80.20
65754;BME280;52488;47.502;18.940;2023-01-27T02:43:47;97964.25;;;-0.51;80.23
65754;BME280;52488;47.502;18.940;2023-01-27T02:44:50;97962.25;;;-0.51;80.10
65754;BME280;52488;47.502;18.940;2023-01-27T02:45:54;97971.59;;;-0.52;80.28
65754;BME280;52488;47.502;18.940;2023-01-27T02:46:57;97967.97;;;-0.55;80.34
65754;BME280;52488;47.502;18.940;2023-01-27T02:48:02;97963.22;;;-0.48;79.97
65754;BME280;52488;47.502;18.940;2023-01-27T02:49:05;97962.78;;;-0.52;79.92
65754;BME280;52488;47.502;18.940;2023-01-27T02:50:09;97963.59;;;-0.58;80.03
65754;BME280;52488;47.502;18.940;2023-01-27T02:51:12;97968.03;;;-0.60;80.17
65754;BME280;52488;47.502;18.940;2023-01-27T02:52:15;97952.56;;;-0.60;80.10
65754;BME280;52488;47.502;18.940;2023-01-27T02:53:19;97955.34;;;-0.65;80.56
65754;BME280;52488;47.502;18.940;2023-01-27T02:54:24;97962.72;;;-0.66;80.93
65754;BME280;52488;47.502;18.940;2023-01-27T02:55:28;97959.28;;;-0.66;80.98
65754;BME280;52488;47.502;18.940;2023-01-27T02:56:31;97956.34;;;-0.68;81.75
65754;BME280;52488;47.502;18.940;2023-01-27T02:57:35;97959.28;;;-0.66;81.78
65754;BME280;52488;47.502;18.940;2023-01-27T02:58:38;97953.38;;;-0.65;81.15
65754;BME280;52488;47.502;18.940;2023-01-27T02:59:42;97955.84;;;-0.67;80.70
65754;BME280;52488;47.502;18.940;2023-01-27T03:00:45;97956.28;;;-0.63;80.41
65754;BME280;52488;47.502;18.940;2023-01-27T03:01:48;97950.53;;;-0.54;79.20
65754;BME280;52488;47.502;18.940;2023-01-27T03:02:52;97962.41;;;-0.62;79.45
65754;BME280;52488;47.502;18.940;2023-01-27T03:03:55;97965.16;;;-0.68;79.76
65754;BME280;52488;47.502;18.940;2023-01-27T03:04:58;97954.44;;;-0.73;79.99
65754;BME280;52488;47.502;18.940;2023-01-27T03:06:04;97952.06;;;-0.77;80.59
65754;BME280;52488;47.502;18.940;2023-01-27T03:07:08;97957.94;;;-0.78;80.50
65754;BME280;52488;47.502;18.940;2023-01-27T03:08:11;97952.84;;;-0.82;80.37
65754;BME280;52488;47.502;18.940;2023-01-27T03:09:14;97955.47;;;-0.76;79.97
65754;BME280;52488;47.502;18.940;2023-01-27T03:10:17;97959.69;;;-0.81;80.01
65754;BME280;52488;47.502;18.940;2023-01-27T03:11:20;97960.88;;;-0.76;79.60
65754;BME280;52488;47.502;18.940;2023-01-27T03:12:43;97955.19;;;-0.73;79.12
65754;BME280;52488;47.502;18.940;2023-01-27T03:13:46;97952.34;;;-0.81;79.08
65754;BME280;52488;47.502;18.940;2023-01-27T03:14:51;97941.63;;;-0.86;79.23
65754;BME280;52488;47.502;18.940;2023-01-27T03:16:13;97950.69;;;-0.89;79.70
65754;BME280;52488;47.502;18.940;2023-01-27T03:17:36;97948.53;;;-0.91;79.54
65754;BME280;52488;47.502;18.940;2023-01-27T03:18:58;97943.91;;;-0.96;79.48
65754;BME280;52488;47.502;18.940;2023-01-27T03:20:01;97944.38;;;-0.92;79.36
65754;BME280;52488;47.502;18.940;2023-01-27T03:21:06;97945.38;;;-0.95;79.65
65754;BME280;52488;47.502;18.940;2023-01-27T03:22:09;97942.00;;;-1.01;80.16
65754;BME280;52488;47.502;18.940;2023-01-27T03:23:17;97947.41;;;-1.01;79.90
65754;BME280;52488;47.502;18.940;2023-01-27T03:24:21;97942.00;;;-1.01;79.91
65754;BME280;52488;47.502;18.940;2023-01-27T03:25:24;97942.31;;;-1.04;80.40
65754;BME280;52488;47.502;18.940;2023-01-27T03:26:27;97940.50;;;-0.96;79.67
65754;BME280;52488;47.502;18.940;2023-01-27T03:27:30;97941.28;;;-1.01;79.44
65754;BME280;52488;47.502;18.940;2023-01-27T03:28:34;97946.22;;;-1.06;79.93
65754;BME280;52488;47.502;18.940;2023-01-27T03:29:38;97933.06;;;-1.09;80.04
65754;BME280;52488;47.502;18.940;2023-01-27T03:31:04;97936.25;;;-1.11;79.90
65754;BME280;52488;47.502;18.940;2023-01-27T03:32:09;97937.47;;;-1.12;80.09
65754;BME280;52488;47.502;18.940;2023-01-27T03:33:12;97934.34;;;-1.16;80.30
65754;BME280;52488;47.502;18.940;2023-01-27T03:34:15;97935.06;;;-1.15;80.33
65754;BME280;52488;47.502;18.940;2023-01-27T03:35:18;97939.28;;;-1.20;80.35
65754;BME280;52488;47.502;18.940;2023-01-27T03:36:22;97927.78;;;-1.20;80.57
65754;BME280;52488;47.502;18.940;2023-01-27T03:37:43;97928.28;;;-1.22;80.49
65754;BME280;52488;47.502;18.940;2023-01-27T03:39:06;97931.19;;;-1.20;80.23
65754;BME280;52488;47.502;18.940;2023-01-27T03:40:27;97926.09;;;-1.23;80.06
65754;BME280;52488;47.502;18.940;2023-01-27T03:41:49;97927.84;;;-1.26;80.09
65754;BME280;52488;47.502;18.940;2023-01-27T03:43:11;97928.09;;;-1.29;80.67
65754;BME280;52488;47.502;18.940;2023-01-27T03:44:33;97925.19;;;-1.31;80.92
65754;BME280;52488;47.502;18.940;2023-01-27T03:45:55;97922.00;;;-1.30;80.60
65754;BME280;52488;47.502;18.940;2023-01-27T03:47:17;97923.75;;;-1.33;81.02
65754;BME280;52488;47.502;18.940;2023-01-27T03:48:20;97923.75;;;-1.33;80.99
65754;BME280;52488;47.502;18.940;2023-01-27T03:49:23;97922.25;;;-1.34;81.24
65754;BME280;52488;47.502;18.940;2023-01-27T03:50:27;97924.97;;;-1.34;81.14
65754;BME280;52488;47.502;18.940;2023-01-27T03:51:39;97922.50;;;-1.31;81.02
65754;BME280;52488;47.502;18.940;2023-01-27T03:52:42;97917.12;;;-1.31;80.74
65754;BME280;52488;47.502;18.940;2023-01-27T03:54:05;97920.31;;;-1.33;81.01
65754;BME280;52488;47.502;18.940;2023-01-27T03:55:08;97914.41;;;-1.31;81.07
65754;BME280;52488;47.502;18.940;2023-01-27T03:56:13;97917.12;;;-1.31;80.76
65754;BME280;52488;47.502;18.940;2023-01-27T03:57:16;97913.75;;;-1.38;80.90
65754;BME280;52488;47.502;18.940;2023-01-27T03:58:29;97915.94;;;-1.36;81.11
65754;BME280;52488;47.502;18.940;2023-01-27T03:59:33;97914.47;;;-1.37;80.74
65754;BME280;52488;47.502;18.940;2023-01-27T04:00:36;97917.69;;;-1.39;80.67
65754;BME280;52488;47.502;18.940;2023-01-27T04:01:40;97908.84;;;-1.39;80.53
65754;BME280;52488;47.502;18.940;2023-01-27T04:02:46;97908.12;;;-1.40;80.82
65754;BME280;52488;47.502;18.940;2023-01-27T04:04:09;97911.31;;;-1.41;81.27
65754;BME280;52488;47.502;18.940;2023-01-27T04:05:31;97906.44;;;-1.43;81.24
65754;BME280;52488;47.502;18.940;2023-01-27T04:06:53;97901.06;;;-1.43;81.17
65754;BME280;52488;47.502;18.940;2023-01-27T04:07:56;97903.25;;;-1.41;81.49
65754;BME280;52488;47.502;18.940;2023-01-27T04:08:59;97909.34;;;-1.41;81.14
65754;BME280;52488;47.502;18.940;2023-01-27T04:10:04;97899.31;;;-1.40;81.12
65754;BME280;52488;47.502;18.940;2023-01-27T04:11:07;97902.00;;;-1.40;81.28
65754;BME280;52488;47.502;18.940;2023-01-27T04:12:33;97905.22;;;-1.42;81.32
65754;BME280;52488;47.502;18.940;2023-01-27T04:13:36;97907.38;;;-1.40;81.02
65754;BME280;52488;47.502;18.940;2023-01-27T04:14:39;97903.97;;;-1.41;80.93
65754;BME280;52488;47.502;18.940;2023-01-27T04:15:43;97909.88;;;-1.42;81.09
65754;BME280;52488;47.502;18.940;2023-01-27T04:16:47;97903.91;;;-1.35;80.99
65754;BME280;52488;47.502;18.940;2023-01-27T04:17:52;97903.63;;;-1.31;80.38
65754;BME280;52488;47.502;18.940;2023-01-27T04:18:57;97905.81;;;-1.30;80.21
65754;BME280;52488;47.502;18.940;2023-01-27T04:20:01;97910.03;;;-1.35;80.38
65754;BME280;52488;47.502;18.940;2023-01-27T04:21:06;97902.47;;;-1.36;80.55
65754;BME280;52488;47.502;18.940;2023-01-27T04:22:11;97901.00;;;-1.37;80.39
65754;BME280;52488;47.502;18.940;2023-01-27T04:23:14;97904.94;;;-1.38;80.54
65754;BME280;52488;47.502;18.940;2023-01-27T04:24:18;97906.84;;;-1.33;80.34
65754;BME280;52488;47.502;18.940;2023-01-27T04:25:27;97901.94;;;-1.35;80.11
65754;BME280;52488;47.502;18.940;2023-01-27T04:26:30;97903.69;;;-1.37;80.71
65754;BME280;52488;47.502;18.940;2023-01-27T04:27:35;97900.28;;;-1.38;80.85
65754;BME280;52488;47.502;18.940;2023-01-27T04:28:38;97901.47;;;-1.33;80.62
65754;BME280;52488;47.502;18.940;2023-01-27T04:29:46;97898.53;;;-1.35;80.32
65754;BME280;52488;47.502;18.940;2023-01-27T04:30:49;97910.75;;;-1.34;80.40
65754;BME280;52488;47.502;18.940;2023-01-27T04:31:53;97903.19;;;-1.36;80.35
65754;BME280;52488;47.502;18.940;2023-01-27T04:32:57;97900.50;;;-1.36;80.59
65754;BME280;52488;47.502;18.940;2023-01-27T04:34:07;97905.66;;;-1.38;80.53
65754;BME280;52488;47.502;18.940;2023-01-27T04:35:12;97901.94;;;-1.35;80.38
65754;BME280;52488;47.502;18.940;2023-01-27T04:36:16;97902.66;;;-1.34;80.19
65754;BME280;52488;47.502;18.940;2023-01-27T04:37:19;97900.44;;;-1.30;79.88
65754;BME280;52488;47.502;18.940;2023-01-27T04:38:25;97902.59;;;-1.28;79.60
65754;BME280;52488;47.502;18.940;2023-01-27T04:39:29;97906.84;;;-1.33;79.62
65754;BME280;52488;47.502;18.940;2023-01-27T04:40:32;97905.31;;;-1.28;79.46
65754;BME280;52488;47.502;18.940;2023-01-27T04:41:35;97906.09;;;-1.34;79.59
65754;BME280;52488;47.502;18.940;2023-01-27T04:42:39;97907.94;;;-1.23;79.11
65754;BME280;52488;47.502;18.940;2023-01-27T04:43:42;97905.03;;;-1.25;78.97
65754;BME280;52488;47.502;18.940;2023-01-27T04:44:45;97904.56;;;-1.29;79.17
65754;BME280;52488;47.502;18.940;2023-01-27T04:45:48;97906.09;;;-1.34;79.53
65754;BME280;52488;47.502;18.940;2023-01-27T04:46:52;97913.22;;;-1.36;79.85
65754;BME280;52488;47.502;18.940;2023-01-27T04:47:56;97910.94;;;-1.26;79.27
65754;BME280;52488;47.502;18.940;2023-01-27T04:49:00;97909.19;;;-1.24;78.88
65754;BME280;52488;47.502;18.940;2023-01-27T04:50:04;97911.53;;;-1.15;78.41
65754;BME280;52488;47.502;18.940;2023-01-27T04:51:08;97913.06;;;-1.19;78.23
65754;BME280;52488;47.502;18.940;2023-01-27T04:52:11;97914.88;;;-1.27;78.49
65754;BME280;52488;47.502;18.940;2023-01-27T04:53:14;97914.41;;;-1.31;78.80
65754;BME280;52488;47.502;18.940;2023-01-27T04:54:17;97913.97;;;-1.36;78.95
65754;BME280;52488;47.502;18.940;2023-01-27T04:55:20;97909.59;;;-1.39;79.07
65754;BME280;52488;47.502;18.940;2023-01-27T04:56:28;97916.72;;;-1.41;79.43
65754;BME280;52488;47.502;18.940;2023-01-27T04:57:31;97919.47;;;-1.47;79.50
65754;BME280;52488;47.502;18.940;2023-01-27T04:58:34;97911.16;;;-1.49;79.92
65754;BME280;52488;47.502;18.940;2023-01-27T04:59:38;97916.81;;;-1.52;80.19
65754;BME280;52488;47.502;18.940;2023-01-27T05:00:41;97917.84;;;-1.55;80.15
65754;BME280;52488;47.502;18.940;2023-01-27T05:01:48;97916.16;;;-1.58;80.17
65754;BME280;52488;47.502;18.940;2023-01-27T05:02:52;97921.31;;;-1.61;80.20
65754;BME280;52488;47.502;18.940;2023-01-27T05:03:56;97923.03;;;-1.63;80.35
65754;BME280;52488;47.502;18.940;2023-01-27T05:04:59;97920.13;;;-1.65;80.44
65754;BME280;52488;47.502;18.940;2023-01-27T05:06:08;97919.16;;;-1.68;80.44
65754;BME280;52488;47.502;18.940;2023-01-27T05:07:11;97918.72;;;-1.72;80.58
65754;BME280;52488;47.502;18.940;2023-01-27T05:08:15;97918.94;;;-1.70;80.62
65754;BME280;52488;47.502;18.940;2023-01-27T05:09:18;97922.16;;;-1.71;80.75
65754;BME280;52488;47.502;18.940;2023-01-27T05:10:21;97926.50;;;-1.68;80.56
65754;BME280;52488;47.502;18.940;2023-01-27T05:11:24;97922.91;;;-1.76;80.51
65754;BME280;52488;47.502;18.940;2023-01-27T05:12:27;97925.88;;;-1.80;80.68
65754;BME280;52488;47.502;18.940;2023-01-27T05:13:33;97930.81;;;-1.84;80.84
65754;BME280;52488;47.502;18.940;2023-01-27T05:14:37;97923.22;;;-1.86;81.23
65754;BME280;52488;47.502;18.940;2023-01-27T05:15:40;97926.16;;;-1.83;81.06
65754;BME280;52488;47.502;18.940;2023-01-27T05:16:46;97920.28;;;-1.82;81.02
65754;BME280;52488;47.502;18.940;2023-01-27T05:17:50;97919.75;;;-1.80;81.26
65754;BME280;52488;47.502;18.940;2023-01-27T05:18:55;97918.78;;;-1.77;81.04
65754;BME280;52488;47.502;18.940;2023-01-27T05:19:58;97923.50;;;-1.59;79.78
65754;BME280;52488;47.502;18.940;2023-01-27T05:21:03;97921.06;;;-1.63;79.47
65754;BME280;52488;47.502;18.940;2023-01-27T05:22:06;97923.81;;;-1.68;80.03
65754;BME280;52488;47.502;18.940;2023-01-27T05:23:11;97920.19;;;-1.71;80.06
65754;BME280;52488;47.502;18.940;2023-01-27T05:24:32;97918.72;;;-1.72;80.06
65754;BME280;52488;47.502;18.940;2023-01-27T05:25:35;97921.91;;;-1.73;80.30
65754;BME280;52488;47.502;18.940;2023-01-27T05:26:39;97921.69;;;-1.75;80.35
65754;BME280;52488;47.502;18.940;2023-01-27T05:27:42;97916.28;;;-1.75;80.41
65754;BME280;52488;47.502;18.940;2023-01-27T05:28:47;97913.59;;;-1.75;80.60
65754;BME280;52488;47.502;18.940;2023-01-27T05:29:51;97916.28;;;-1.75;80.50
65754;BME280;52488;47.502;18.940;2023-01-27T05:31:03;97917.03;;;-1.75;80.50
65754;BME280;52488;47.502;18.940;2023-01-27T05:32:07;97912.37;;;-1.74;80.16
65754;BME280;52488;47.502;18.940;2023-01-27T05:33:10;97913.88;;;-1.79;80.47
65754;BME280;52488;47.502;18.940;2023-01-27T05:34:13;97924.94;;;-1.82;80.31
65754;BME280;52488;47.502;18.940;2023-01-27T05:35:17;97922.78;;;-1.90;80.43
65754;BME280;52488;47.502;18.940;2023-01-27T05:36:22;97923.06;;;-1.93;80.62
65754;BME280;52488;47.502;18.940;2023-01-27T05:37:25;97922.31;;;-1.94;80.68
65754;BME280;52488;47.502;18.940;2023-01-27T05:38:29;97919.38;;;-1.96;80.60
65754;BME280;52488;47.502;18.940;2023-01-27T05:39:32;97918.72;;;-2.02;80.77
65754;BME280;52488;47.502;18.940;2023-01-27T05:40:35;97920.44;;;-2.04;80.97
65754;BME280;52488;47.502;18.940;2023-01-27T05:41:39;97923.41;;;-2.08;81.05
65754;BME280;52488;47.502;18.940;2023-01-27T05:42:45;97923.19;;;-2.10;81.12
65754;BME280;52488;47.502;18.940;2023-01-27T05:43:53;97923.66;;;-2.12;81.27
65754;BME280;52488;47.502;18.940;2023-01-27T05:44:56;97920.50;;;-2.10;81.28
65754;BME280;52488;47.502;18.940;2023-01-27T05:47:32;97927.34;;;-2.09;81.37
65754;BME280;52488;47.502;18.940;2023-01-27T05:48:38;97926.81;;;-2.07;81.45
65754;BME280;52488;47.502;18.940;2023-01-27T05:49:42;97923.88;;;-2.04;81.37
65754;BME280;52488;47.502;18.940;2023-01-27T05:50:53;97923.16;;;-2.04;81.27
65754;BME280;52488;47.502;18.940;2023-01-27T05:51:56;97918.50;;;-2.04;81.33